Time;durP1;ratioP1;P1;durP2;ratioP2;P2;SDS_P1;SDS_P2;PMS_P1;PMS_P2;Temp;Humidity;BMP_temperature;BMP_pressure;BME280_temperature;BME280_humidity;BME280_pressure;Samples;Min_cycle;Max_cycle;Signal;HPM_P1;HPM_P2
2023/03/09 05:41:38;;;;;;;;;;;;;;;3.56;100.00;98864.83;110643;1248;22538;-42
2023/03/09 05:44:13;;;;;;;;;;;;;;;3.60;100.00;98872.79;110139;1248;22492;-50
2023/03/09 05:46:40;;;;;;;;;;;;;;;3.62;100.00;98871.58;111189;1248;22551;-42
2023/03/09 05:49:07;;;;;;;;;;;;;;;3.61;100.00;98867.62;110758;1248;24062;-42
2023/03/09 05:51:34;;;;;;;;;;;;;;;3.59;100.00;98867.60;110721;1248;23086;-44
2023/03/09 05:54:02;;;;;;;;;;;;;;;3.60;100.00;98869.68;111363;1248;23210;-41
2023/03/09 05:56:31;;;;;;;;;;;;;;;3.66;100.00;98861.09;112760;1248;25356;-42
2023/03/09 05:59:03;;;;;;;;;;;;;;;3.78;100.00;98854.75;112673;1248;22469;-50
2023/03/09 06:01:30;;;;;;;;;;;;;;;3.89;100.00;98852.56;112586;1248;23299;-49
2023/03/09 06:04:11;;;;;;;;;;;;;;;3.95;100.00;98852.59;111975;1248;22517;-42
2023/03/09 06:06:46;;;;;;;;;;;;;;;3.94;100.00;98847.40;110765;1248;23331;-51
2023/03/09 06:09:21;;;;;;;;;;;;;;;3.94;100.00;98847.23;112874;1248;23173;-50
2023/03/09 06:11:49;;;;;;;;;;;;;;;3.92;100.00;98848.25;112377;1248;22542;-43
2023/03/09 06:14:18;;;;;;;;;;;;;;;3.94;100.00;98845.84;112829;1248;23233;-43
2023/03/09 06:16:44;;;;;;;;;;;;;;;3.99;100.00;98845.69;112639;1248;227948;-51
2023/03/09 06:19:13;;;;;;;;;;;;;;;4.06;100.00;98841.23;112833;1248;22501;-50
2023/03/09 06:21:40;;;;;;;;;;;;;;;4.15;100.00;98843.50;112811;1248;22431;-42
2023/03/09 06:24:08;;;;;;;;;;;;;;;4.23;100.00;98843.17;112481;1248;22999;-50
2023/03/09 06:26:34;;;;;;;;;;;;;;;4.30;100.00;98835.94;112760;1248;23161;-42
2023/03/09 06:29:07;;;;;;;;;;;;;;;4.39;100.00;98833.38;111997;1248;22566;-45
2023/03/09 06:31:44;;;;;;;;;;;;;;;4.52;100.00;98834.08;112075;1244;22514;-54
2023/03/09 06:34:11;;;;;;;;;;;;;;;4.64;100.00;98825.80;112519;1248;22832;-45
2023/03/09 06:36:39;;;;;;;;;;;;;;;4.74;100.00;98819.41;112158;1248;22574;-54
2023/03/09 06:39:07;;;;;;;;;;;;;;;4.79;100.00;98827.69;112615;1248;22879;-53
2023/03/09 06:41:36;;;;;;;;;;;;;;;4.84;100.00;98828.73;112244;1249;22506;-53
2023/03/09 06:44:19;;;;;;;;;;;;;;;4.91;100.00;98830.46;112644;1248;22478;-53
2023/03/09 06:46:46;;;;;;;;;;;;;;;5.03;100.00;98842.55;112529;1248;23414;-54
2023/03/09 06:49:13;;;;;;;;;;;;;;;5.12;100.00;98850.83;112521;1248;22409;-52
2023/03/09 06:51:47;;;;;;;;;;;;;;;5.19;100.00;98857.23;112489;1248;22469;-52
2023/03/09 06:54:18;;;;;;;;;;;;;;;5.24;100.00;98856.19;112070;1248;23734;-53
2023/03/09 06:56:56;;;;;;;;;;;;;;;5.28;100.00;98851.51;111609;1249;22998;-54
2023/03/09 06:59:33;;;;;;;;;;;;;;;5.32;100.00;98843.02;111622;1248;23667;-54
2023/03/09 07:02:07;;;;;;;;;;;;;;;5.43;100.00;98835.91;111844;1247;22511;-53
2023/03/09 07:04:47;;;;;;;;;;;;;;;5.55;100.00;98842.45;111714;1248;23835;-54
2023/03/09 07:07:18;;;;;;;;;;;;;;;5.58;100.00;98849.02;111848;1248;22526;-53
2023/03/09 07:09:50;;;;;;;;;;;;;;;5.63;100.00;98840.17;111744;1248;22509;-44
2023/03/09 07:12:25;;;;;;;;;;;;;;;5.74;100.00;98827.16;111723;1248;24047;-55
2023/03/09 07:14:57;;;;;;;;;;;;;;;5.86;100.00;98821.58;111635;1248;23682;-43
2023/03/09 07:17:33;;;;;;;;;;;;;;;5.99;100.00;98827.60;111607;1248;23246;-44
2023/03/09 07:20:10;;;;;;;;;;;;;;;6.14;100.00;98820.95;112599;1248;22459;-45
2023/03/09 07:22:44;;;;;;;;;;;;;;;6.30;100.00;98812.55;112019;1248;22507;-55
2023/03/09 07:25:27;;;;;;;;;;;;;;;6.47;100.00;98808.27;112095;1248;22575;-44
2023/03/09 07:28:19;;;;;;;;;;;;;;;6.69;100.00;98805.33;111567;1248;22512;-43
2023/03/09 07:30:47;;;;;;;;;;;;;;;6.85;100.00;98809.36;112607;1248;22520;-43
2023/03/09 07:33:17;;;;;;;;;;;;;;;7.00;100.00;98805.93;112167;1248;23326;-44
2023/03/09 07:35:46;;;;;;;;;;;;;;;7.17;100.00;98808.55;110733;1248;24279;-59
2023/03/09 07:38:27;;;;;;;;;;;;;;;7.37;99.59;98800.53;112214;1248;23231;-43
2023/03/09 07:41:02;;;;;;;;;;;;;;;7.56;98.00;98797.55;111375;1248;23125;-53
2023/03/09 07:43:32;;;;;;;;;;;;;;;7.74;96.82;98792.29;112469;1248;22539;-52
2023/03/09 07:46:07;;;;;;;;;;;;;;;7.93;95.42;98785.45;112242;1248;22458;-44
2023/03/09 07:48:37;;;;;;;;;;;;;;;8.14;94.15;98785.52;112346;1248;22531;-53
2023/03/09 07:51:04;;;;;;;;;;;;;;;8.39;92.00;98781.87;112074;1248;22543;-45
2023/03/09 07:53:34;;;;;;;;;;;;;;;8.60;90.25;98778.59;112370;1248;22688;-53
2023/03/09 07:56:03;;;;;;;;;;;;;;;8.75;89.12;98774.52;111921;1248;23067;-45
2023/03/09 07:58:34;;;;;;;;;;;;;;;8.90;88.52;98769.23;112778;1248;23707;-54
2023/03/09 08:01:05;;;;;;;;;;;;;;;9.05;87.40;98770.71;111953;1248;22496;-53
2023/03/09 08:03:35;;;;;;;;;;;;;;;9.21;86.19;98769.88;112323;1248;22490;-53
2023/03/09 08:06:05;;;;;;;;;;;;;;;9.38;85.26;98764.35;112732;1248;23213;-45
2023/03/09 08:08:34;;;;;;;;;;;;;;;9.50;83.43;98758.54;111895;1248;22976;-43
2023/03/09 08:11:02;;;;;;;;;;;;;;;9.63;80.61;98762.27;112058;1248;22532;-53
2023/03/09 08:13:36;;;;;;;;;;;;;;;9.81;78.84;98760.87;111544;1248;23819;-56
2023/03/09 08:16:06;;;;;;;;;;;;;;;10.01;77.75;98762.35;111895;1248;22456;-55
2023/03/09 08:18:37;;;;;;;;;;;;;;;10.21;76.91;98761.05;112423;1248;22522;-44
2023/03/09 08:21:04;;;;;;;;;;;;;;;10.41;76.69;98760.93;111839;1248;22858;-52
2023/03/09 08:23:31;;;;;;;;;;;;;;;10.66;74.45;98758.77;112557;1248;24175;-54
2023/03/09 08:25:59;;;;;;;;;;;;;;;10.90;71.33;98749.46;112908;1248;22363;-43
2023/03/09 08:28:26;;;;;;;;;;;;;;;11.06;70.52;98756.19;112576;1248;22462;-43
2023/03/09 08:30:54;;;;;;;;;;;;;;;11.14;69.85;98753.70;112956;1248;22370;-53
2023/03/09 08:33:23;;;;;;;;;;;;;;;11.16;69.54;98746.48;112954;1248;22402;-52
2023/03/09 08:35:50;;;;;;;;;;;;;;;11.21;69.64;98747.57;112594;1248;22485;-53
2023/03/09 08:38:18;;;;;;;;;;;;;;;11.31;69.60;98750.27;112783;1248;22504;-53
2023/03/09 08:40:45;;;;;;;;;;;;;;;11.44;69.49;98740.65;112572;1248;23155;-52
2023/03/09 08:43:14;;;;;;;;;;;;;;;11.59;68.10;98745.82;112130;1248;23203;-45
2023/03/09 08:45:41;;;;;;;;;;;;;;;11.69;67.54;98740.29;112715;1248;23116;-43
2023/03/09 08:48:09;;;;;;;;;;;;;;;11.81;67.46;98735.60;111933;1248;22496;-53
2023/03/09 08:50:36;;;;;;;;;;;;;;;11.91;67.36;98733.73;112862;1248;23009;-45
2023/03/09 08:53:04;;;;;;;;;;;;;;;12.02;66.81;98733.58;112561;1248;22482;-53
2023/03/09 08:55:32;;;;;;;;;;;;;;;12.08;66.95;98734.44;112776;1248;22350;-44
2023/03/09 08:57:59;;;;;;;;;;;;;;;12.12;67.04;98721.75;112863;1248;22882;-45
2023/03/09 09:00:27;;;;;;;;;;;;;;;12.17;67.70;98715.61;111752;1248;22666;-51
2023/03/09 09:02:58;;;;;;;;;;;;;;;12.28;66.86;98708.64;110788;1248;22550;-54
2023/03/09 09:05:25;;;;;;;;;;;;;;;12.40;66.36;98707.55;111994;1248;22536;-53
2023/03/09 09:07:54;;;;;;;;;;;;;;;12.50;65.56;98696.73;112818;1248;23604;-42
2023/03/09 09:10:21;;;;;;;;;;;;;;;12.60;64.59;98693.95;112709;1248;22854;-44
2023/03/09 09:13:03;;;;;;;;;;;;;;;12.73;64.23;98679.34;112858;1248;22417;-44
2023/03/09 09:15:31;;;;;;;;;;;;;;;12.84;63.73;98681.08;112911;1248;22566;-54
2023/03/09 09:18:00;;;;;;;;;;;;;;;12.96;62.60;98674.36;112862;1248;23234;-53
2023/03/09 09:20:27;;;;;;;;;;;;;;;13.09;62.60;98666.89;112693;1248;22393;-52
2023/03/09 09:22:54;;;;;;;;;;;;;;;13.25;61.91;98673.67;112930;1248;23166;-53
2023/03/09 09:25:22;;;;;;;;;;;;;;;13.40;59.95;98674.19;112971;1247;22366;-53
2023/03/09 09:27:50;;;;;;;;;;;;;;;13.51;57.30;98669.20;112713;1248;22466;-43
2023/03/09 09:30:18;;;;;;;;;;;;;;;13.78;55.91;98660.45;112871;1248;22392;-44
2023/03/09 09:32:44;;;;;;;;;;;;;;;14.06;52.31;98664.12;112509;1248;22765;-45
2023/03/09 09:35:12;;;;;;;;;;;;;;;14.20;50.66;98662.67;112966;1248;22387;-53
2023/03/09 09:37:41;;;;;;;;;;;;;;;14.28;51.13;98656.91;112730;1248;23784;-43
2023/03/09 09:40:12;;;;;;;;;;;;;;;14.41;50.31;98648.48;112793;1248;22482;-43
2023/03/09 09:42:42;;;;;;;;;;;;;;;14.55;49.33;98649.50;112590;1248;22463;-43
2023/03/09 09:45:18;;;;;;;;;;;;;;;14.66;48.64;98646.40;112398;1248;22517;-54
2023/03/09 09:47:47;;;;;;;;;;;;;;;14.76;47.94;98637.58;112709;1248;22567;-44
2023/03/09 09:50:40;;;;;;;;;;;;;;;14.87;47.58;98636.55;112000;1247;22601;-54
2023/03/09 09:54:16;;;;;;;;;;;;;;;15.02;47.94;98627.47;111716;1248;23502;-55
2023/03/09 09:57:22;;;;;;;;;;;;;;;15.12;47.30;98628.77;112055;1244;22520;-55
2023/03/09 09:59:57;;;;;;;;;;;;;;;15.19;47.49;98628.77;111905;1249;22519;-54
2023/03/09 10:06:16;;;;;;;;;;;;;;;15.36;45.50;98618.00;112615;1249;22818;-53
2023/03/09 10:09:11;;;;;;;;;;;;;;;15.40;46.30;98603.27;112702;1249;23184;-44
2023/03/09 10:11:55;;;;;;;;;;;;;;;15.50;45.02;98602.45;112568;1249;22563;-54
2023/03/09 10:15:04;;;;;;;;;;;;;;;15.56;44.55;98605.69;112388;1249;22460;-44
2023/03/09 10:18:09;;;;;;;;;;;;;;;15.62;45.34;98596.98;112860;1249;22492;-53
2023/03/09 10:20:37;;;;;;;;;;;;;;;15.78;44.53;98599.03;111731;1256;25485;-43
2023/03/09 10:23:16;;;;;;;;;;;;;;;15.94;44.07;98595.64;112020;1256;22646;-53
2023/03/09 10:25:43;;;;;;;;;;;;;;;16.11;44.12;98591.48;112071;1256;22453;-43
2023/03/09 10:28:14;;;;;;;;;;;;;;;16.34;44.27;98593.80;112036;1256;22391;-53
2023/03/09 10:30:55;;;;;;;;;;;;;;;16.57;43.52;98584.89;111829;1257;22492;-43
2023/03/09 10:33:36;;;;;;;;;;;;;;;16.82;42.95;98573.41;111879;1256;22410;-43
2023/03/09 10:36:06;;;;;;;;;;;;;;;17.08;41.97;98569.25;111510;1256;22978;-42
2023/03/09 10:38:34;;;;;;;;;;;;;;;17.25;41.51;98569.39;112008;1256;22442;-50
2023/03/09 10:41:13;;;;;;;;;;;;;;;17.40;40.74;98567.13;111624;1256;23301;-51
2023/03/09 10:43:42;;;;;;;;;;;;;;;17.56;40.67;98556.73;112017;1256;22420;-52
2023/03/09 10:46:13;;;;;;;;;;;;;;;17.81;39.77;98556.79;111929;1256;22419;-49
2023/03/09 10:48:41;;;;;;;;;;;;;;;18.10;39.40;98546.26;111881;1256;22682;-44
2023/03/09 10:51:26;;;;;;;;;;;;;;;18.36;38.58;98541.75;111499;1256;23289;-50
2023/03/09 10:53:54;;;;;;;;;;;;;;;18.56;38.68;98547.98;112054;1256;22505;-42
2023/03/09 10:56:24;;;;;;;;;;;;;;;18.75;38.21;98537.48;112428;1249;23122;-45
2023/03/09 10:59:03;;;;;;;;;;;;;;;19.00;36.40;98536.42;112564;1249;23199;-41
2023/03/09 11:01:30;;;;;;;;;;;;;;;19.25;35.34;98538.05;112281;1249;22749;-41
2023/03/09 11:04:01;;;;;;;;;;;;;;;19.41;35.09;98537.57;112281;1249;22850;-50
2023/03/09 11:06:33;;;;;;;;;;;;;;;19.60;34.61;98539.55;112185;1249;22463;-50
2023/03/09 11:09:10;;;;;;;;;;;;;;;19.81;34.27;98542.60;112543;1249;22514;-50
2023/03/09 11:11:42;;;;;;;;;;;;;;;20.00;34.02;98533.27;112635;1249;23156;-41
2023/03/09 11:14:19;;;;;;;;;;;;;;;20.13;33.60;98523.31;112797;1249;23208;-42
2023/03/09 11:16:50;;;;;;;;;;;;;;;20.13;33.62;98528.85;112361;1249;22539;-42
2023/03/09 11:19:18;;;;;;;;;;;;;;;20.08;33.65;98525.98;112728;1249;23585;-51
2023/03/09 11:21:50;;;;;;;;;;;;;;;20.09;33.84;98514.08;112715;1249;22418;-51
2023/03/09 11:24:17;;;;;;;;;;;;;;;20.21;33.84;98518.39;112795;1249;23238;-49
2023/03/09 11:26:48;;;;;;;;;;;;;;;20.40;33.31;98516.61;112726;1249;22428;-43
2023/03/09 11:29:18;;;;;;;;;;;;;;;20.56;32.85;98507.33;112673;1249;22379;-42
2023/03/09 11:31:45;;;;;;;;;;;;;;;20.57;33.23;98499.64;112622;1249;22396;-51
2023/03/09 11:34:16;;;;;;;;;;;;;;;20.58;33.12;98505.45;112834;1249;23088;-42
2023/03/09 11:36:45;;;;;;;;;;;;;;;20.62;33.51;98490.67;112817;1249;22396;-43
2023/03/09 11:39:17;;;;;;;;;;;;;;;20.77;33.11;98486.92;112807;1249;22395;-42
2023/03/09 11:41:44;;;;;;;;;;;;;;;20.83;32.72;98485.45;112806;1249;22478;-51
2023/03/09 11:44:19;;;;;;;;;;;;;;;20.73;32.64;98486.85;112660;1249;22797;-43
2023/03/09 11:46:46;;;;;;;;;;;;;;;20.43;33.12;98487.89;112626;1249;22376;-43
2023/03/09 11:49:23;;;;;;;;;;;;;;;20.07;33.42;98486.03;112612;1249;23186;-42
2023/03/09 11:51:50;;;;;;;;;;;;;;;19.68;34.00;98476.80;112783;1249;22393;-51
2023/03/09 11:54:37;;;;;;;;;;;;;;;19.40;34.55;98474.19;112821;1249;23235;-51
2023/03/09 11:57:07;;;;;;;;;;;;;;;19.28;35.08;98466.52;112772;1249;22344;-51
2023/03/09 11:59:36;;;;;;;;;;;;;;;19.31;35.33;98470.35;112585;1249;22378;-43
2023/03/09 12:02:15;;;;;;;;;;;;;;;19.33;34.51;98462.10;112816;1249;23256;-42
2023/03/09 12:04:45;;;;;;;;;;;;;;;19.31;34.84;98460.31;112839;1249;23048;-42
2023/03/09 12:07:31;;;;;;;;;;;;;;;19.28;34.54;98453.59;112752;1249;22382;-43
2023/03/09 12:10:02;;;;;;;;;;;;;;;19.17;34.79;98445.27;112884;1249;22386;-51
2023/03/09 12:12:38;;;;;;;;;;;;;;;19.12;34.67;98431.80;112924;1249;22453;-43
2023/03/09 12:15:11;;;;;;;;;;;;;;;19.03;34.43;98438.41;111442;1249;22860;-42
2023/03/09 12:17:41;;;;;;;;;;;;;;;18.90;34.99;98440.64;112095;1249;22550;-42
2023/03/09 12:20:18;;;;;;;;;;;;;;;18.85;35.22;98434.77;112088;1249;25184;-50
2023/03/09 12:22:45;;;;;;;;;;;;;;;18.91;35.43;98438.43;110726;1249;22520;-41
2023/03/09 12:25:18;;;;;;;;;;;;;;;18.92;35.10;98428.52;111823;1249;22607;-42
2023/03/09 12:27:49;;;;;;;;;;;;;;;18.88;35.23;98427.32;112062;1249;22460;-43
2023/03/09 12:30:17;;;;;;;;;;;;;;;18.89;34.97;98421.41;112928;1249;22485;-44
2023/03/09 12:32:43;;;;;;;;;;;;;;;18.91;35.14;98415.17;111250;1249;22497;-43
2023/03/09 12:35:17;;;;;;;;;;;;;;;18.74;35.64;98422.55;112904;1249;23188;-43
2023/03/09 12:37:59;;;;;;;;;;;;;;;18.43;36.25;98416.55;111890;1249;24161;-43
2023/03/09 12:40:26;;;;;;;;;;;;;;;18.18;36.62;98416.14;110472;1249;23121;-50
2023/03/09 12:42:55;;;;;;;;;;;;;;;18.16;36.74;98406.20;110026;1249;26514;-43
2023/03/09 12:45:23;;;;;;;;;;;;;;;18.25;37.07;98396.45;111878;1249;22450;-40
2023/03/09 12:47:58;;;;;;;;;;;;;;;18.43;36.46;98399.27;112948;1249;23232;-41
2023/03/09 12:50:48;;;;;;;;;;;;;;;18.60;35.43;98391.44;112557;1249;22557;-40
2023/03/09 12:53:15;;;;;;;;;;;;;;;18.60;34.76;98385.78;112603;1249;23429;-42
2023/03/09 12:55:48;;;;;;;;;;;;;;;18.58;35.04;98383.82;112812;1249;22393;-49
2023/03/09 12:58:21;;;;;;;;;;;;;;;18.56;34.77;98376.16;112272;1249;22570;-51
2023/03/09 13:00:58;;;;;;;;;;;;;;;18.41;34.99;98373.96;112679;1249;25372;-47
2023/03/09 13:03:45;;;;;;;;;;;;;;;18.22;35.47;98375.14;111363;1249;22485;-50
2023/03/09 13:06:20;;;;;;;;;;;;;;;18.06;34.65;98376.80;110786;1249;22613;-41
2023/03/09 13:08:51;;;;;;;;;;;;;;;17.95;34.60;98364.73;111668;1249;22524;-43
2023/03/09 13:11:24;;;;;;;;;;;;;;;17.88;34.07;98368.17;110304;1249;22548;-49
2023/03/09 13:13:50;;;;;;;;;;;;;;;17.88;34.19;98362.90;110042;1249;24345;-49
2023/03/09 13:16:36;;;;;;;;;;;;;;;17.91;34.11;98364.99;110989;1249;22637;-42
2023/03/09 13:19:18;;;;;;;;;;;;;;;17.92;34.33;98374.33;109986;1249;22502;-50
